Time;durP1;ratioP1;P1;durP2;ratioP2;P2;SDS_P1;SDS_P2;PMS_P1;PMS_P2;Temp;Humidity;BMP_temperature;BMP_pressure;BME280_temperature;BME280_humidity;BME280_pressure;Samples;Min_cycle;Max_cycle;Signal;HPM_P1;HPM_P2
2022/05/24 00:00:31;;;;;;;14.80;9.02;;;;;;;;;;5101011;27;20071;-82
2022/05/24 00:02:57;;;;;;;15.43;8.70;;;;;;;;;;5097573;27;20487;-82
2022/05/24 00:05:23;;;;;;;12.77;7.35;;;;;;;;;;5101914;27;20518;-82
2022/05/24 00:07:50;;;;;;;15.13;7.47;;;;;;;;;;5101647;27;20089;-80
2022/05/24 00:10:17;;;;;;;11.35;7.07;;;;;;;;;;5109729;27;20522;-79
2022/05/24 00:12:44;;;;;;;10.43;7.25;;;;;;;;;;5109772;27;20122;-81
2022/05/24 00:15:23;;;;;;;13.07;7.30;;;;;;;;;;5089722;28;20097;-81
2022/05/24 00:17:55;;;;;;;10.90;6.82;;;;;;;;;;5101226;27;20050;-81
2022/05/24 00:20:22;;;;;;;15.50;7.60;;;;;;;;;;5109171;27;20043;-82
2022/05/24 00:22:48;;;;;;;14.70;7.70;;;;;;;;;;5107998;27;20081;-81
2022/05/24 00:25:15;;;;;;;13.98;7.55;;;;;;;;;;5112347;27;20097;-80
2022/05/24 00:27:41;;;;;;;12.43;8.40;;;;;;;;;;5103869;27;20035;-80
2022/05/24 00:30:07;;;;;;;13.35;8.57;;;;;;;;;;5106552;27;20047;-81
2022/05/24 00:32:34;;;;;;;8.80;7.30;;;;;;;;;;5054015;27;20122;-82
2022/05/24 00:35:00;;;;;;;11.82;7.40;;;;;;;;;;5103663;27;20399;-81
2022/05/24 00:37:28;;;;;;;8.25;7.15;;;;;;;;;;5088210;27;20040;-82
2022/05/24 00:39:54;;;;;;;10.45;8.27;;;;;;;;;;5109937;27;20510;-82
2022/05/24 00:42:23;;;;;;;10.55;8.27;;;;;;;;;;5106130;27;20054;-82
2022/05/24 00:44:53;;;;;;;11.57;8.40;;;;;;;;;;5112598;27;20040;-81
2022/05/24 00:47:23;;;;;;;11.98;8.40;;;;;;;;;;5110569;27;20043;-81
2022/05/24 00:49:56;;;;;;;15.27;9.45;;;;;;;;;;5120528;28;20108;-82
2022/05/24 00:52:26;;;;;;;14.52;9.75;;;;;;;;;;5102824;27;20059;-81
2022/05/24 00:54:52;;;;;;;13.15;9.90;;;;;;;;;;5125095;27;20525;-81
2022/05/24 00:57:24;;;;;;;14.35;10.18;;;;;;;;;;5117134;27;20383;-81
2022/05/24 01:00:26;;;;;;;15.30;10.25;;;;;;;;;;5110952;27;20043;-81
2022/05/24 01:02:52;;;;;;;14.07;10.85;;;;;;;;;;5022665;28;20030;-81
2022/05/24 01:05:25;;;;;;;15.18;8.95;;;;;;;;;;5077396;28;20060;-82
2022/05/24 01:07:51;;;;;;;15.82;10.85;;;;;;;;;;5099621;27;20040;-81
2022/05/24 01:10:48;;;;;;;15.55;9.57;;;;;;;;;;5090824;28;20040;-81
2022/05/24 01:13:21;;;;;;;13.38;9.68;;;;;;;;;;5078566;27;20059;-80
2022/05/24 01:15:48;;;;;;;18.05;10.63;;;;;;;;;;5100577;27;20047;-81
2022/05/24 01:18:14;;;;;;;10.27;9.15;;;;;;;;;;5097974;28;20038;-81
2022/05/24 01:20:42;;;;;;;14.85;11.18;;;;;;;;;;5062401;28;20036;-81
2022/05/24 01:23:27;;;;;;;11.82;9.68;;;;;;;;;;5090615;28;20038;-81
2022/05/24 01:25:59;;;;;;;16.27;10.52;;;;;;;;;;5096604;28;20043;-81
2022/05/24 01:28:30;;;;;;;13.88;10.13;;;;;;;;;;5083471;28;20046;-82
2022/05/24 01:30:56;;;;;;;16.35;9.43;;;;;;;;;;5089529;28;20188;-81
2022/05/24 01:36:11;;;;;;;12.65;9.13;;;;;;;;;;5096209;28;20112;-81
2022/05/24 01:38:46;;;;;;;10.93;8.07;;;;;;;;;;5084181;28;20059;-83
2022/05/24 01:41:13;;;;;;;11.70;7.53;;;;;;;;;;5082788;28;20261;-81
2022/05/24 01:43:40;;;;;;;11.18;6.68;;;;;;;;;;5100962;28;20612;-82
2022/05/24 01:46:09;;;;;;;10.82;7.00;;;;;;;;;;5096344;28;20047;-82
2022/05/24 01:48:46;;;;;;;8.85;6.50;;;;;;;;;;5083766;28;20083;-82
2022/05/24 01:51:14;;;;;;;10.55;6.95;;;;;;;;;;5080809;28;20051;-81
2022/05/24 01:53:42;;;;;;;10.88;6.30;;;;;;;;;;5092168;28;20134;-82
2022/05/24 01:56:10;;;;;;;10.10;6.50;;;;;;;;;;5099123;27;20046;-82
2022/05/24 01:58:39;;;;;;;9.68;6.07;;;;;;;;;;5082987;28;20162;-81
2022/05/24 02:01:25;;;;;;;12.63;5.93;;;;;;;;;;5101579;27;20110;-82
2022/05/24 02:03:51;;;;;;;6.70;5.10;;;;;;;;;;5095244;27;20051;-83
2022/05/24 02:06:19;;;;;;;10.95;5.35;;;;;;;;;;5118455;27;20039;-81
2022/05/24 02:08:45;;;;;;;11.02;6.47;;;;;;;;;;5122900;27;20142;-81
2022/05/24 02:11:11;;;;;;;9.38;5.75;;;;;;;;;;5125675;27;20036;-81
2022/05/24 02:13:40;;;;;;;9.30;6.10;;;;;;;;;;5111881;27;20047;-80
2022/05/24 02:16:09;;;;;;;9.07;6.10;;;;;;;;;;5108395;27;20507;-81
2022/05/24 02:18:40;;;;;;;9.48;6.63;;;;;;;;;;5091766;28;20134;-81
2022/05/24 02:21:06;;;;;;;9.05;6.63;;;;;;;;;;5090410;28;20044;-83
2022/05/24 02:23:40;;;;;;;13.13;6.88;;;;;;;;;;5092764;27;20399;-81
2022/05/24 02:26:07;;;;;;;8.63;6.63;;;;;;;;;;5087689;28;20062;-80
2022/05/24 02:28:34;;;;;;;11.43;6.97;;;;;;;;;;5094379;27;20096;-80
2022/05/24 02:31:03;;;;;;;19.50;8.82;;;;;;;;;;5081472;27;21813;-81
2022/05/24 02:33:29;;;;;;;13.57;7.88;;;;;;;;;;5101353;27;20032;-82
2022/05/24 02:35:56;;;;;;;11.32;7.95;;;;;;;;;;5099889;27;20031;-81
2022/05/24 02:38:23;;;;;;;12.32;7.90;;;;;;;;;;5105899;27;20047;-83
2022/05/24 02:43:34;;;;;;;13.38;8.35;;;;;;;;;;5101915;27;20043;-82
2022/05/24 02:46:00;;;;;;;13.45;8.93;;;;;;;;;;5100114;27;20082;-82
2022/05/24 02:48:26;;;;;;;13.35;8.75;;;;;;;;;;5104735;27;20036;-81
2022/05/24 02:50:52;;;;;;;13.65;9.25;;;;;;;;;;5099374;27;20032;-82
2022/05/24 02:53:18;;;;;;;18.25;9.77;;;;;;;;;;5091445;27;20079;-81
2022/05/24 02:55:44;;;;;;;15.45;9.05;;;;;;;;;;5090418;27;20198;-82
2022/05/24 02:58:11;;;;;;;12.35;9.25;;;;;;;;;;5073946;27;20039;-81
2022/05/24 03:00:37;;;;;;;14.25;10.63;;;;;;;;;;5097532;27;20032;-81
2022/05/24 03:03:08;;;;;;;15.00;9.25;;;;;;;;;;5087518;27;20400;-81
2022/05/24 03:05:35;;;;;;;12.65;9.95;;;;;;;;;;5084529;28;20131;-81
2022/05/24 03:10:46;;;;;;;15.13;11.00;;;;;;;;;;5098882;27;20131;-81
2022/05/24 03:16:16;;;;;;;13.32;10.90;;;;;;;;;;5072934;28;20756;-81
2022/05/24 03:18:42;;;;;;;15.10;11.85;;;;;;;;;;5098804;27;20035;-81
2022/05/24 03:21:09;;;;;;;22.35;12.55;;;;;;;;;;5085841;27;20028;-81
2022/05/24 03:23:35;;;;;;;15.18;11.88;;;;;;;;;;5105273;27;20047;-80
2022/05/24 03:26:02;;;;;;;16.38;11.80;;;;;;;;;;5099068;27;20067;-81
2022/05/24 03:28:28;;;;;;;15.73;11.77;;;;;;;;;;5092946;27;20035;-80
2022/05/24 03:30:54;;;;;;;16.75;12.30;;;;;;;;;;5105998;27;20044;-80
2022/05/24 03:33:21;;;;;;;16.70;11.77;;;;;;;;;;5109622;27;20058;-81
2022/05/24 03:35:47;;;;;;;19.35;12.52;;;;;;;;;;5110923;27;20087;-80
2022/05/24 03:38:13;;;;;;;16.60;12.02;;;;;;;;;;5100656;27;20097;-81
2022/05/24 03:40:40;;;;;;;20.88;11.95;;;;;;;;;;5109225;27;20047;-81
2022/05/24 03:43:16;;;;;;;21.20;12.73;;;;;;;;;;5113036;27;20031;-81
2022/05/24 03:45:42;;;;;;;21.33;13.20;;;;;;;;;;5106758;27;20089;-81
2022/05/24 03:48:09;;;;;;;19.67;13.30;;;;;;;;;;5095139;27;20052;-81
2022/05/24 03:50:35;;;;;;;18.75;14.23;;;;;;;;;;5085365;27;20086;-81
2022/05/24 03:53:01;;;;;;;19.05;13.75;;;;;;;;;;5084503;27;20071;-82
2022/05/24 03:55:27;;;;;;;21.83;13.38;;;;;;;;;;5127243;27;20065;-81
2022/05/24 03:58:00;;;;;;;20.33;14.60;;;;;;;;;;5129713;27;20035;-81
2022/05/24 04:00:26;;;;;;;23.60;14.13;;;;;;;;;;5126383;27;20104;-81
2022/05/24 04:02:52;;;;;;;21.88;14.93;;;;;;;;;;5123254;27;20047;-81
2022/05/24 04:05:19;;;;;;;21.63;14.73;;;;;;;;;;5101734;27;20070;-82
2022/05/24 04:07:45;;;;;;;22.55;16.27;;;;;;;;;;5110937;27;20032;-82
2022/05/24 04:10:12;;;;;;;25.20;18.77;;;;;;;;;;5093811;27;20058;-81
2022/05/24 04:12:38;;;;;;;26.40;20.13;;;;;;;;;;5104881;27;20051;-81
2022/05/24 04:15:05;;;;;;;30.70;20.85;;;;;;;;;;5117879;27;20065;-81
2022/05/24 04:17:31;;;;;;;31.80;21.73;;;;;;;;;;5105368;27;20078;-82
2022/05/24 04:19:57;;;;;;;27.98;21.55;;;;;;;;;;5112500;27;20046;-81
2022/05/24 04:22:23;;;;;;;29.27;23.35;;;;;;;;;;5114499;27;20115;-82
2022/05/24 04:24:49;;;;;;;32.35;23.13;;;;;;;;;;5116331;27;20480;-81
2022/05/24 04:27:16;;;;;;;33.47;24.48;;;;;;;;;;5100065;27;20433;-80
2022/05/24 04:29:42;;;;;;;35.35;24.60;;;;;;;;;;5115001;27;20031;-82
2022/05/24 04:32:09;;;;;;;32.83;23.92;;;;;;;;;;5111492;27;20049;-80
2022/05/24 04:34:36;;;;;;;36.13;24.88;;;;;;;;;;5108430;27;20457;-81
2022/05/24 04:37:02;;;;;;;37.50;25.30;;;;;;;;;;5100007;27;20042;-80
2022/05/24 04:39:29;;;;;;;33.65;25.58;;;;;;;;;;5102433;27;20035;-81
2022/05/24 04:44:39;;;;;;;34.25;25.38;;;;;;;;;;5106437;27;20040;-81
2022/05/24 04:47:09;;;;;;;38.03;28.80;;;;;;;;;;5108499;27;20036;-81
2022/05/24 04:49:36;;;;;;;37.92;28.95;;;;;;;;;;5111974;27;20118;-80
2022/05/24 04:52:02;;;;;;;47.35;30.08;;;;;;;;;;5097332;27;20043;-81
2022/05/24 04:54:28;;;;;;;40.20;28.25;;;;;;;;;;5114804;27;20079;-81
2022/05/24 04:56:55;;;;;;;42.55;29.88;;;;;;;;;;5113771;27;20030;-81
2022/05/24 04:59:21;;;;;;;38.55;29.27;;;;;;;;;;5101266;27;20092;-81
2022/05/24 05:01:47;;;;;;;42.05;29.08;;;;;;;;;;5108478;27;20042;-81
2022/05/24 05:04:13;;;;;;;39.22;27.10;;;;;;;;;;5110255;27;20138;-81
2022/05/24 05:06:45;;;;;;;40.15;27.35;;;;;;;;;;5100873;28;20661;-81
2022/05/24 05:09:12;;;;;;;40.25;27.48;;;;;;;;;;5107204;27;20478;-81
2022/05/24 05:11:38;;;;;;;35.95;27.02;;;;;;;;;;5111064;27;20044;-81
2022/05/24 05:14:04;;;;;;;36.03;25.52;;;;;;;;;;5107191;27;20150;-81
2022/05/24 05:16:30;;;;;;;30.88;23.42;;;;;;;;;;5089287;28;20122;-81
2022/05/24 05:18:57;;;;;;;32.38;24.58;;;;;;;;;;5118513;27;20042;-80
2022/05/24 05:21:23;;;;;;;27.67;20.70;;;;;;;;;;5117351;27;20047;-82
2022/05/24 05:23:49;;;;;;;35.67;24.00;;;;;;;;;;5104773;27;20518;-81
2022/05/24 05:26:15;;;;;;;30.13;20.58;;;;;;;;;;5083704;28;20666;-80
2022/05/24 05:28:42;;;;;;;26.67;18.08;;;;;;;;;;5108108;28;20036;-80
2022/05/24 05:31:19;;;;;;;25.23;18.88;;;;;;;;;;5109334;28;20556;-81
2022/05/24 05:33:47;;;;;;;22.50;17.38;;;;;;;;;;5107738;28;20050;-81
2022/05/24 05:36:14;;;;;;;20.13;13.98;;;;;;;;;;5107176;28;20066;-81
2022/05/24 05:38:45;;;;;;;17.42;13.05;;;;;;;;;;5113169;28;20028;-80
2022/05/24 05:41:11;;;;;;;18.52;13.07;;;;;;;;;;5106498;28;20040;-80
2022/05/24 05:43:38;;;;;;;16.40;11.70;;;;;;;;;;5107846;28;20156;-81
2022/05/24 05:46:04;;;;;;;18.67;12.27;;;;;;;;;;5108351;28;20032;-81
2022/05/24 05:48:32;;;;;;;16.33;11.07;;;;;;;;;;5108084;28;20227;-82
2022/05/24 05:50:58;;;;;;;14.70;10.55;;;;;;;;;;5089665;28;20055;-80
2022/05/24 05:53:24;;;;;;;16.67;11.45;;;;;;;;;;5104793;28;20449;-81
2022/05/24 05:55:51;;;;;;;18.05;11.85;;;;;;;;;;5109644;28;20495;-82
2022/05/24 05:58:17;;;;;;;22.02;12.82;;;;;;;;;;5107845;28;20043;-82
2022/05/24 06:00:43;;;;;;;18.08;12.30;;;;;;;;;;5089405;28;20512;-80
2022/05/24 06:03:09;;;;;;;29.80;13.05;;;;;;;;;;5098211;28;20082;-80
2022/05/24 06:05:36;;;;;;;16.23;11.95;;;;;;;;;;5089489;28;20047;-79
2022/05/24 06:08:02;;;;;;;16.95;11.82;;;;;;;;;;5108688;28;20035;-80
2022/05/24 06:10:29;;;;;;;18.17;13.00;;;;;;;;;;5082745;28;20052;-81
2022/05/24 06:12:57;;;;;;;19.52;13.70;;;;;;;;;;5106282;28;20039;-82
2022/05/24 06:15:27;;;;;;;21.88;14.63;;;;;;;;;;5105509;28;20043;-79
2022/05/24 06:17:54;;;;;;;19.30;14.68;;;;;;;;;;5104656;28;20048;-81
2022/05/24 06:20:21;;;;;;;18.08;13.27;;;;;;;;;;5071220;28;20077;-81
2022/05/24 06:22:49;;;;;;;21.55;14.30;;;;;;;;;;5100510;28;20104;-81
2022/05/24 06:25:16;;;;;;;17.95;13.23;;;;;;;;;;5104688;28;20082;-81
2022/05/24 06:27:42;;;;;;;18.30;12.57;;;;;;;;;;5099427;28;20043;-79
2022/05/24 06:30:08;;;;;;;20.10;13.68;;;;;;;;;;5116996;28;20487;-82
2022/05/24 06:32:34;;;;;;;20.20;13.63;;;;;;;;;;5111763;28;20062;-82
2022/05/24 06:35:00;;;;;;;18.52;13.85;;;;;;;;;;5111430;28;20403;-83
2022/05/24 06:37:27;;;;;;;19.60;13.48;;;;;;;;;;5104519;28;20037;-82
2022/05/24 06:39:53;;;;;;;21.50;13.82;;;;;;;;;;5101230;28;20483;-79
2022/05/24 06:42:37;;;;;;;20.60;14.30;;;;;;;;;;5105901;27;20150;-85
2022/05/24 06:45:04;;;;;;;29.27;16.13;;;;;;;;;;5111483;27;20075;-80
2022/05/24 06:47:30;;;;;;;21.33;15.40;;;;;;;;;;5111251;27;20087;-79
2022/05/24 06:49:57;;;;;;;25.85;14.15;;;;;;;;;;5110528;28;20598;-79
2022/05/24 06:52:23;;;;;;;20.00;15.70;;;;;;;;;;5114511;28;20031;-83
2022/05/24 06:54:50;;;;;;;19.92;15.15;;;;;;;;;;5122982;27;20039;-84
2022/05/24 06:57:16;;;;;;;21.98;16.50;;;;;;;;;;5114226;28;20042;-81
2022/05/24 07:02:33;;;;;;;29.85;17.95;;;;;;;;;;5119672;27;20079;-83
2022/05/24 07:05:07;;;;;;;31.83;17.15;;;;;;;;;;5125245;27;20054;-84
2022/05/24 07:07:34;;;;;;;24.92;17.58;;;;;;;;;;5102721;27;20048;-84
2022/05/24 07:10:01;;;;;;;26.80;18.17;;;;;;;;;;5119157;27;20039;-85
2022/05/24 07:12:27;;;;;;;26.23;16.17;;;;;;;;;;5097765;27;20104;-85
2022/05/24 07:14:54;;;;;;;28.00;15.80;;;;;;;;;;5117700;27;20117;-82
2022/05/24 07:17:21;;;;;;;18.52;13.10;;;;;;;;;;5106064;27;20035;-82
2022/05/24 07:19:47;;;;;;;22.85;12.25;;;;;;;;;;5109943;27;20574;-82
2022/05/24 07:22:14;;;;;;;16.52;11.02;;;;;;;;;;5116838;27;20133;-81
2022/05/24 07:24:40;;;;;;;16.45;12.43;;;;;;;;;;5087008;28;20068;-83
2022/05/24 07:27:10;;;;;;;15.40;12.32;;;;;;;;;;5096968;27;20039;-83
2022/05/24 07:29:37;;;;;;;13.40;10.75;;;;;;;;;;5109423;28;20123;-83
2022/05/24 07:32:04;;;;;;;17.15;11.05;;;;;;;;;;5107412;28;20050;-82
2022/05/24 07:34:38;;;;;;;19.20;13.43;;;;;;;;;;5112315;27;20036;-85
2022/05/24 07:37:08;;;;;;;;;;;13.90;99.90;;;;;;5099428;27;20112;-85
2022/05/24 07:49:06;;;;;;;28.58;18.52;;;;;;;;;;5069200;28;20051;-82
2022/05/24 07:51:43;;;;;;;27.05;18.20;;;;;;;;;;5078241;28;20104;-84
2022/05/24 07:57:37;;;;;;;21.60;15.13;;;;;;;;;;5084146;28;20079;-83
2022/05/24 08:00:04;;;;;;;16.05;10.63;;;;;;;;;;5088627;28;20077;-83
2022/05/24 08:02:30;;;;;;;17.17;11.13;;;;;;;;;;5110798;28;20434;-85
2022/05/24 08:04:56;;;;;;;13.32;10.50;;;;;;;;;;5092779;28;20491;-83
2022/05/24 08:07:22;;;;;;;17.75;11.05;;;;;;;;;;5093227;28;20046;-85
2022/05/24 08:09:49;;;;;;;17.60;10.75;;;;;;;;;;5074671;28;20051;-84
2022/05/24 08:12:15;;;;;;;17.10;10.05;;;;;;;;;;5088333;28;20132;-84
2022/05/24 08:14:41;;;;;;;17.17;10.48;;;;;;;;;;5076160;28;20392;-85
2022/05/24 08:17:07;;;;;;;18.33;11.02;;;;;;;;;;5071009;28;20043;-84
2022/05/24 08:19:33;;;;;;;15.70;10.50;;;;;;;;;;5058402;28;20043;-84
2022/05/24 08:21:59;;;;;;;14.32;9.38;;;;;;;;;;5106873;28;20096;-85
2022/05/24 08:24:25;;;;;;;13.55;9.63;;;;;;;;;;5085681;28;20050;-85
2022/05/24 08:26:51;;;;;;;13.07;7.68;;;;;;;;;;5115248;27;20104;-83
2022/05/24 08:29:17;;;;;;;17.08;8.85;;;;;;;;;;5081542;27;20110;-84
2022/05/24 08:31:50;;;;;;;15.65;10.35;;;;;;;;;;5128872;27;20050;-84
2022/05/24 08:34:16;;;;;;;14.35;10.82;;;;;;;;;;5094496;28;20046;-83
2022/05/24 08:36:57;;;;;;;15.80;10.68;;;;;;;;;;5105265;27;20047;-86
2022/05/24 08:39:23;;;;;;;16.00;10.07;;;;;;;;;;5072454;28;20123;-83
2022/05/24 08:41:54;;;;;;;16.02;10.80;;;;;;;;;;5108148;28;20068;-85
2022/05/24 08:50:09;;;;;;;14.07;10.13;;;;;;;;;;5091175;28;20040;-88
2022/05/24 08:52:49;;;;;;;20.90;11.95;;;;;;;;;;5121617;27;20118;-85
2022/05/24 08:55:16;;;;;;;17.13;10.52;;;;;;;;;;5094297;28;20040;-85
2022/05/24 08:57:50;;;;;;;14.63;8.93;;;;;;;;;;5098870;28;20047;-89
2022/05/24 09:00:36;;;;;;;13.85;9.73;;;;;;;;;;5115897;27;20040;-85
2022/05/24 09:03:06;;;;;;;17.95;9.10;;;;;;;;;;5096731;28;20054;-87
2022/05/24 09:05:32;;;;;;;12.43;7.07;;;;;;;;;;5115893;27;20063;-87
2022/05/24 09:08:06;;;;;;;15.10;8.02;;;;;;;;;;5103957;28;20047;-88
2022/05/24 09:10:41;;;;;;;10.25;8.32;;;;;;;;;;5112792;28;20047;-87
2022/05/24 09:13:26;;;;;;;10.48;7.75;;;;;;;;;;5113860;28;20036;-88
2022/05/24 09:16:18;;;;;;;12.15;8.10;;;;;;;;;;5111267;28;20043;-85
2022/05/24 09:19:05;;;;;;;10.80;5.07;;;;;;;;;;5105910;28;20043;-87
2022/05/24 09:21:35;;;;;;;9.07;4.43;;;;;;;;;;5107353;28;20058;-87
2022/05/24 09:24:10;;;;;;;8.70;4.13;;;;;;;;;;5090688;28;20069;-84
2022/05/24 09:26:56;;;;;;;9.15;4.13;;;;;;;;;;5108490;28;20043;-84
2022/05/24 09:29:22;;;;;;;7.63;4.82;;;;;;;;;;5106670;28;20073;-87
2022/05/24 09:31:49;;;;;;;9.00;5.28;;;;;;;;;;5108390;28;20089;-87
2022/05/24 09:34:18;;;;;;;13.93;6.28;;;;;;;;;;5113888;28;20039;-86
2022/05/24 09:37:01;;;;;;;11.60;6.82;;;;;;;;;;5108467;28;20059;-86
2022/05/24 09:39:31;;;;;;;17.55;8.32;;;;;;;;;;5112204;28;20047;-85
2022/05/24 09:42:01;;;;;;;9.90;8.40;;;;;;;;;;5107291;28;20059;-83
2022/05/24 09:44:28;;;;;;;12.73;8.30;;;;;;;;;;5109327;28;20031;-84
2022/05/24 09:46:55;;;;;;;14.48;8.45;;;;;;;;;;5090627;28;20075;-84
2022/05/24 09:49:48;;;;;;;13.18;7.60;;;;;;;;;;5109590;28;20032;-85
2022/05/24 09:52:15;;;;;;;10.25;7.85;;;;;;;;;;5092562;28;20059;-84
2022/05/24 09:54:51;;;;;;;17.30;9.13;;;;;;;;;;5114607;28;20074;-84
2022/05/24 09:57:21;;;;;;;10.40;8.52;;;;;;;;;;5121566;28;20076;-82
2022/05/24 09:59:57;;;;;;;13.52;10.02;;;;;;;;;;5129120;28;20044;-84
2022/05/24 10:02:23;;;;;;;10.85;7.07;;;;;;;;;;5098949;28;20048;-87
2022/05/24 10:04:49;;;;;;;13.35;4.25;;;;;;;;;;5098706;28;20051;-86
2022/05/24 10:07:24;;;;;;;14.23;5.88;;;;;;;;;;5090188;28;20047;-83
2022/05/24 10:09:51;;;;;;;12.95;6.07;;;;;;;;;;5109547;28;20138;-83
2022/05/24 10:12:32;;;;;;;8.70;5.55;;;;;;;;;;5108072;28;20055;-82
2022/05/24 10:15:04;;;;;;;7.47;5.80;;;;;;;;;;5110882;28;20069;-83
2022/05/24 10:17:40;;;;;;;11.18;6.10;;;;;;;;;;5111820;28;20082;-85
2022/05/24 10:22:58;;;;;;;5.82;5.22;;;;;;;;;;5085337;22;20135;-86
2022/05/24 10:25:44;;;;;;;8.15;5.82;;;;;;;;;;5095110;28;20048;-86
2022/05/24 10:28:29;;;;;;;6.68;5.10;;;;;;;;;;5094594;28;20071;-85
2022/05/24 10:31:18;;;;;;;6.90;5.07;;;;;;;;;;5096014;28;20521;-83
2022/05/24 10:46:08;;;;;;;4.15;3.70;;;;;;;;;;5093401;28;20055;-86
2022/05/24 10:48:41;;;;;;;5.70;3.92;;;;;;;;;;5060139;28;20061;-85
2022/05/24 10:51:10;;;;;;;9.23;4.60;;;;;;;;;;5071001;28;20036;-86
2022/05/24 10:54:02;;;;;;;5.28;3.95;;;;;;;;;;5057775;28;20051;-85
2022/05/24 10:56:40;;;;;;;7.95;4.75;;;;;;;;;;5076590;28;20044;-84
2022/05/24 10:59:16;;;;;;;5.38;3.80;;;;;;;;;;5082043;28;20036;-88
2022/05/24 11:01:44;;;;;;;5.70;3.30;;;;;;;;;;5046994;28;20538;-88
2022/05/24 11:04:14;;;;;;;4.53;3.20;;;;;;;;;;5044906;28;20048;-85
2022/05/24 11:06:42;;;;;;;4.85;3.08;;;;;;;;;;5044164;28;20135;-86
2022/05/24 11:09:11;;;;;;;6.35;3.05;;;;;;;;;;5077612;28;20055;-84
2022/05/24 11:11:49;;;;;;;4.22;3.30;;;;;;;;;;5046789;28;20033;-88
2022/05/24 11:14:18;;;;;;;13.00;3.55;;;;;;;;;;5079761;28;20052;-87
2022/05/24 11:16:49;;;;;;;7.95;3.75;;;;;;;;;;5080499;28;20051;-88
2022/05/24 11:19:22;;;;;;;6.10;3.58;;;;;;;;;;5058730;28;20127;-83
2022/05/24 11:22:01;;;;;;;8.30;4.00;;;;;;;;;;5056718;28;20071;-87
2022/05/24 11:25:05;;;;;;;6.90;4.40;;;14.40;99.90;;;;;;5037392;28;20430;-87
2022/05/24 11:27:34;;;;;;;14.07;2.88;;;;;;;;;;5027153;28;20045;-86
2022/05/24 11:30:13;;;;;;;3.17;2.70;;;;;;;;;;5042232;28;20053;-87
2022/05/24 11:32:44;;;;;;;5.53;3.45;;;;;;;;;;5061312;28;20044;-87
2022/05/24 11:35:19;;;;;;;4.88;3.17;;;;;;;;;;5042696;28;20406;-87
2022/05/24 11:38:11;;;;;;;3.00;2.10;;;;;;;;;;5044799;22;20053;-86
2022/05/24 11:40:39;;;;;;;7.35;2.30;;;;;;;;;;5033027;28;20041;-85
2022/05/24 11:43:07;;;;;;;3.92;1.70;;;;;;;;;;5050312;28;20064;-85
2022/05/24 11:45:34;;;;;;;1.95;1.58;;;;;;;;;;5031548;28;20040;-83
2022/05/24 11:48:19;;;;;;;2.78;1.40;;;14.70;99.90;;;;;;5033261;28;20037;-84
2022/05/24 11:50:46;;;;;;;3.00;1.92;;;;;;;;;;5033184;28;20037;-87
2022/05/24 11:53:38;;;;;;;2.22;2.00;;;;;;;;;;5055658;28;20052;-81
2022/05/24 11:56:10;;;;;;;4.72;2.63;;;;;;;;;;5048401;28;20091;-84
2022/05/24 11:58:36;;;;;;;4.25;2.90;;;;;;;;;;5046965;28;20040;-83
2022/05/24 12:01:19;;;;;;;4.60;2.65;;;;;;;;;;5047903;28;20055;-85
2022/05/24 12:10:01;;;;;;;5.95;3.25;;;;;;;;;;5032585;28;20052;-86
2022/05/24 12:12:34;;;;;;;9.43;3.40;;;;;;;;;;5047969;28;20072;-85
2022/05/24 12:15:18;;;;;;;7.45;3.45;;;;;;;;;;5051040;28;20049;-83
2022/05/24 12:17:49;;;;;;;4.70;3.85;;;;;;;;;;5048384;28;20056;-86
2022/05/24 12:20:48;;;;;;;6.97;3.40;;;;;;;;;;5046526;28;20052;-81
2022/05/24 12:23:16;;;;;;;5.75;3.03;;;;;;;;;;5017059;28;20102;-85
2022/05/24 12:26:03;;;;;;;2.92;2.60;;;;;;;;;;5029327;28;20142;-83
2022/05/24 12:28:36;;;;;;;3.20;2.63;;;;;;;;;;5051168;28;20048;-82
2022/05/24 12:31:08;;;;;;;4.50;3.70;;;;;;;;;;5047962;28;20049;-85
2022/05/24 12:33:34;;;;;;;6.93;3.22;;;;;;;;;;5031080;28;20045;-82
2022/05/24 12:36:06;;;;;;;21.40;2.42;;;;;;;;;;5032346;28;20051;-85
2022/05/24 12:38:33;;;;;;;6.32;2.13;;;;;;;;;;5047674;28;20057;-83
2022/05/24 12:44:19;;;;;;;7.10;2.10;;;;;;;;;;5047651;28;20117;-82
2022/05/24 12:47:09;;;;;;;5.50;2.28;;;;;;;;;;5017082;28;20090;-81
2022/05/24 12:49:54;;;;;;;5.72;2.92;;;;;;;;;;5042891;28;20056;-82
2022/05/24 12:52:24;;;;;;;6.68;2.88;;;;;;;;;;5051558;28;20075;-81
2022/05/24 12:54:58;;;;;;;5.70;3.03;;;;;;;;;;5066536;28;20045;-80
2022/05/24 12:57:47;;;;;;;4.93;2.47;;;;;;;;;;5068847;28;20049;-81
2022/05/24 13:00:22;;;;;;;4.78;2.00;;;;;;;;;;5038049;28;20187;-83
2022/05/24 13:02:49;;;;;;;3.00;1.77;;;;;;;;;;5028717;28;20052;-82
2022/05/24 13:05:19;;;;;;;6.05;1.92;;;;;;;;;;5028302;28;20037;-83
2022/05/24 13:07:56;;;;;;;3.78;1.33;;;;;;;;;;5049608;28;20599;-84
2022/05/24 13:10:22;;;;;;;4.97;1.25;;;;;;;;;;5021928;28;20111;-82
2022/05/24 13:12:51;;;;;;;5.10;1.40;;;;;;;;;;5014867;28;20057;-83
2022/05/24 13:15:26;;;;;;;5.65;1.77;;;;;;;;;;5031212;28;20048;-85
2022/05/24 13:18:02;;;;;;;6.78;2.00;;;;;;;;;;5018014;28;20036;-85
2022/05/24 13:20:49;;;;;;;7.80;2.22;;;;;;;;;;5029951;28;20483;-81
2022/05/24 13:23:15;;;;;;;5.97;2.17;;;;;;;;;;5032283;28;20039;-82
2022/05/24 13:25:50;;;;;;;7.45;2.05;;;;;;;;;;5064048;28;20135;-83
2022/05/24 13:28:56;;;;;;;6.00;1.60;;;;;;;;;;5039645;28;20573;-83
2022/05/24 13:34:52;;;;;;;2.58;1.60;;;;;;;;;;5005679;28;20057;-82
2022/05/24 13:37:19;;;;;;;7.75;1.75;;;;;;;;;;5054761;28;20113;-83
2022/05/24 13:39:45;;;;;;;4.97;1.95;;;;;;;;;;5054562;23;20042;-85
2022/05/24 13:42:42;;;;;;;8.40;2.03;;;;;;;;;;5035817;28;20101;-85
2022/05/24 13:45:11;;;;;;;4.60;1.70;;;;;;;;;;5026048;28;20033;-84
2022/05/24 13:47:38;;;;;;;2.85;1.10;;;;;;;;;;5009837;28;20064;-86
2022/05/24 13:50:17;;;;;;;2.10;0.85;;;;;;;;;;5026955;28;20433;-86
2022/05/24 13:52:49;;;;;;;4.05;0.90;;;;;;;;;;4996617;28;20114;-86
2022/05/24 13:55:59;;;;;;;2.88;0.68;;;;;;;;;;5031963;28;20527;-87
2022/05/24 13:58:33;;;;;;;2.10;0.98;;;;;;;;;;4995823;28;20057;-82
2022/05/24 14:01:23;;;;;;;3.77;1.20;;;;;;;;;;5022314;28;20050;-86
2022/05/24 14:03:53;;;;;;;4.15;0.93;;;;;;;;;;5020293;28;20305;-85
2022/05/24 14:06:27;;;;;;;4.68;1.25;;;;;;;;;;5006874;28;20081;-85
2022/05/24 14:09:05;;;;;;;4.50;1.10;;;;;;;;;;5006546;28;20049;-86
2022/05/24 14:12:06;;;;;;;7.53;1.33;;;;;;;;;;4959300;28;20532;-88
2022/05/24 14:14:33;;;;;;;10.45;1.20;;;;;;;;;;5020479;28;20050;-84
2022/05/24 14:17:07;;;;;;;7.27;1.47;;;;;;;;;;4987072;28;20056;-83
2022/05/24 14:20:52;;;;;;;4.72;1.27;;;;;;;;;;5018582;28;20308;-84
2022/05/24 14:23:13;;;;;;;5.88;1.25;;;;;;;;;;4988012;28;20138;-82
2022/05/24 14:28:54;;;;;;;6.93;1.63;;;;;;;;;;5019463;28;20545;-83
2022/05/24 14:31:53;;;;;;;3.83;1.42;;;18.40;99.90;;;;;;5004885;28;20534;-82
2022/05/24 14:34:46;;;;;;;2.72;1.00;;;;;;;;;;5017825;28;20177;-83
2022/05/24 14:37:15;;;;;;;3.90;1.40;;;;;;;;;;5002812;28;20045;-83
2022/05/24 14:39:50;;;;;;;4.57;1.80;;;;;;;;;;5017041;28;20077;-84
2022/05/24 14:42:16;;;;;;;5.13;1.40;;;;;;;;;;5022960;28;20057;-85
2022/05/24 14:44:45;;;;;;;4.85;1.77;;;;;;;;;;4986225;28;20541;-83
2022/05/24 14:47:15;;;;;;;2.53;1.30;;;;;;;;;;5000130;28;20060;-82
2022/05/24 14:49:42;;;;;;;2.42;1.30;;;;;;;;;;5015915;28;20054;-83
2022/05/24 14:52:09;;;;;;;4.55;1.70;;;;;;;;;;5007310;28;20040;-81
2022/05/24 14:54:38;;;;;;;10.40;2.13;;;;;;;;;;5000950;28;20042;-84
2022/05/24 14:57:29;;;;;;;3.10;1.42;;;;;;;;;;5014427;28;20486;-85
2022/05/24 14:59:55;;;;;;;4.25;1.55;;;;;;;;;;5002722;28;20038;-83
2022/05/24 15:02:40;;;;;;;4.63;1.50;;;;;;;;;;5013813;28;20073;-86
2022/05/24 15:05:08;;;;;;;8.52;2.55;;;;;;;;;;4979095;28;20482;-83
2022/05/24 15:16:13;;;;;;;2.70;1.30;;;;;;;;;;4999428;28;20050;-81
2022/05/24 15:18:39;;;;;;;2.03;1.55;;;;;;;;;;5014410;28;20077;-84
2022/05/24 15:21:06;;;;;;;8.15;1.60;;;;;;;;;;4998876;28;20041;-85
2022/05/24 15:23:33;;;;;;;2.85;1.90;;;;;;;;;;4998311;28;20069;-86
2022/05/24 15:26:04;;;;;;;5.28;1.65;;;;;;;;;;4982804;28;20077;-85
2022/05/24 15:28:33;;;;;;;4.45;1.40;;;;;;;;;;4996097;28;20103;-85
2022/05/24 15:30:59;;;;;;;3.50;1.30;;;;;;;;;;5035188;28;20121;-82
2022/05/24 15:33:28;;;;;;;5.35;1.25;;;;;;;;;;5017608;28;20045;-84
2022/05/24 15:35:54;;;;;;;5.32;1.65;;;;;;;;;;5018607;28;20096;-84
2022/05/24 15:38:20;;;;;;;4.50;1.52;;;;;;;;;;5017424;28;20088;-88
2022/05/24 15:40:49;;;;;;;5.95;1.45;;;;;;;;;;5013324;28;20110;-83
2022/05/24 15:43:15;;;;;;;5.95;1.58;;;;;;;;;;4968528;28;20042;-88
2022/05/24 15:45:43;;;;;;;3.80;1.60;;;;;;;;;;5014280;28;20108;-82
2022/05/24 15:48:12;;;;;;;4.90;1.73;;;;;;;;;;5019491;28;20050;-83
2022/05/24 15:50:38;;;;;;;3.63;1.80;;;;;;;;;;5000130;28;20042;-85
2022/05/24 15:53:05;;;;;;;4.38;2.00;;;;;;;;;;4979447;28;20036;-86
2022/05/24 15:55:40;;;;;;;3.58;2.00;;;;;;;;;;5013947;28;20092;-85
2022/05/24 15:58:06;;;;;;;4.60;2.60;;;;;;;;;;5020480;28;20049;-83
2022/05/24 16:00:32;;;;;;;4.68;2.45;;;;;;;;;;5022833;28;20092;-86
2022/05/24 16:03:14;;;;;;;4.07;2.47;;;;;;;;;;5024949;28;20045;-87
2022/05/24 16:11:22;;;;;;;7.00;2.70;;;;;;;;;;4985456;28;20034;-83